Time;durP1;ratioP1;P1;durP2;ratioP2;P2;SDS_P1;SDS_P2;PMS_P1;PMS_P2;Temp;Humidity;BMP_temperature;BMP_pressure;BME280_temperature;BME280_humidity;BME280_pressure;Samples;Min_cycle;Max_cycle;Signal;HPM_P1;HPM_P2
2021/10/01 00:02:06;;;;;;;2.37;2.00;;;9.20;99.90;;;;;;4994678;28;20190;-64
2021/10/01 00:04:32;;;;;;;2.13;2.03;;;9.20;99.90;;;;;;4994822;28;20207;-66
2021/10/01 00:06:58;;;;;;;2.80;1.90;;;9.30;99.90;;;;;;4994850;28;20184;-64
2021/10/01 00:09:23;;;;;;;2.30;1.80;;;9.30;99.90;;;;;;4994256;28;20167;-64
2021/10/01 00:11:52;;;;;;;4.70;2.10;;;9.20;99.90;;;;;;4994320;28;20206;-65
2021/10/01 00:14:21;;;;;;;3.40;2.33;;;9.20;99.90;;;;;;4994485;28;20207;-65
2021/10/01 00:16:47;;;;;;;2.50;2.30;;;9.20;99.90;;;;;;4994344;28;20431;-65
2021/10/01 00:19:14;;;;;;;3.47;2.20;;;9.10;99.90;;;;;;4994196;28;20836;-64
2021/10/01 00:21:40;;;;;;;3.07;2.13;;;9.10;99.90;;;;;;4994163;28;20188;-64
2021/10/01 00:24:08;;;;;;;3.37;2.50;;;9.10;99.90;;;;;;4994349;28;20470;-65
2021/10/01 00:26:38;;;;;;;8.20;2.17;;;9.10;99.90;;;;;;4992963;28;20168;-65
2021/10/01 00:29:04;;;;;;;4.10;2.20;;;9.10;99.90;;;;;;4993957;28;20482;-64
2021/10/01 00:31:30;;;;;;;3.13;1.70;;;9.10;99.90;;;;;;4994240;28;20463;-65
2021/10/01 00:33:56;;;;;;;4.53;1.80;;;9.00;99.90;;;;;;4993925;28;20878;-64
2021/10/01 00:36:22;;;;;;;4.80;1.87;;;8.90;99.90;;;;;;4994160;28;20172;-64
2021/10/01 00:38:47;;;;;;;2.17;2.03;;;8.90;99.90;;;;;;4992871;28;20430;-64
2021/10/01 00:41:13;;;;;;;2.67;2.20;;;8.90;99.90;;;;;;4994232;28;20211;-66
2021/10/01 00:43:38;;;;;;;1.80;1.70;;;8.80;99.90;;;;;;4994080;28;20208;-64
2021/10/01 00:46:04;;;;;;;2.30;2.03;;;8.70;99.90;;;;;;4993951;28;20184;-64
2021/10/01 00:48:29;;;;;;;2.83;2.03;;;8.60;99.90;;;;;;4993636;28;20179;-65
2021/10/01 00:50:55;;;;;;;3.27;2.30;;;8.50;99.90;;;;;;4993459;28;20591;-64
2021/10/01 00:53:22;;;;;;;4.93;2.23;;;8.50;99.90;;;;;;4993872;28;20218;-64
2021/10/01 00:55:48;;;;;;;3.77;2.10;;;8.50;99.90;;;;;;4993428;28;20457;-64
2021/10/01 00:58:13;;;;;;;2.23;1.80;;;8.60;99.90;;;;;;4993682;28;20434;-65
2021/10/01 01:01:21;;;;;;;2.37;1.80;;;8.60;99.90;;;;;;4993477;28;20183;-64
2021/10/01 01:03:28;;;;;;;3.23;2.03;;;8.60;99.90;;;;;;4988188;28;20191;-64
2021/10/01 01:06:19;;;;;;;5.30;2.30;;;8.70;99.90;;;;;;4993699;28;20438;-65
2021/10/01 01:09:18;;;;;;;2.23;2.07;;;8.80;99.90;;;;;;4993472;28;20521;-64
2021/10/01 01:11:55;;;;;;;2.30;1.83;;;8.80;99.90;;;;;;4981955;28;20470;-65
2021/10/01 01:14:25;;;;;;;3.40;2.50;;;8.80;99.90;;;;;;4993441;28;20460;-64
2021/10/01 01:16:55;;;;;;;4.47;2.00;;;8.80;99.90;;;;;;4993351;28;20516;-64
2021/10/01 01:20:01;;;;;;;1.90;1.67;;;8.80;99.90;;;;;;4993173;28;20439;-66
2021/10/01 01:22:54;;;;;;;3.33;1.87;;;8.80;99.90;;;;;;4993020;28;20438;-64
2021/10/01 01:25:37;;;;;;;2.27;1.90;;;8.80;99.90;;;;;;4993381;28;20443;-64
2021/10/01 01:28:40;;;;;;;2.73;1.70;;;8.80;99.90;;;;;;4991766;28;20484;-66
2021/10/01 01:31:16;;;;;;;2.53;1.80;;;8.80;99.90;;;;;;4974037;28;20515;-65
2021/10/01 01:33:45;;;;;;;1.97;1.80;;;8.80;99.90;;;;;;4986410;28;20454;-64
2021/10/01 01:36:13;;;;;;;2.37;2.00;;;8.80;99.90;;;;;;4992324;28;20808;-65
2021/10/01 01:38:43;;;;;;;2.67;2.43;;;8.80;99.90;;;;;;4992494;28;20514;-64
2021/10/01 01:41:10;;;;;;;3.30;1.90;;;8.80;99.90;;;;;;4993220;28;20533;-66
2021/10/01 01:43:38;;;;;;;4.40;1.50;;;8.80;99.90;;;;;;4992543;28;20490;-64
2021/10/01 01:46:04;;;;;;;3.80;2.40;;;8.80;99.90;;;;;;4992847;28;20434;-65
2021/10/01 01:48:30;;;;;;;2.13;1.73;;;8.80;99.90;;;;;;4992232;28;20493;-66
2021/10/01 01:50:57;;;;;;;2.47;1.93;;;8.70;99.90;;;;;;4992471;28;20463;-65
2021/10/01 01:53:24;;;;;;;7.13;1.80;;;8.70;99.90;;;;;;4992743;28;20438;-65
2021/10/01 01:55:51;;;;;;;3.40;2.20;;;8.70;99.90;;;;;;4991086;28;20478;-65
2021/10/01 01:58:17;;;;;;;3.10;1.90;;;8.70;99.90;;;;;;4992329;28;20510;-65
2021/10/01 02:00:45;;;;;;;3.00;1.83;;;8.70;99.90;;;;;;4992848;28;20525;-65
2021/10/01 02:03:12;;;;;;;2.53;2.20;;;8.70;99.90;;;;;;4992206;28;20438;-65
2021/10/01 02:05:38;;;;;;;2.33;2.13;;;8.70;99.90;;;;;;4992642;28;20790;-65
2021/10/01 02:08:05;;;;;;;5.03;1.23;;;8.70;99.90;;;;;;4992082;28;20438;-65
2021/10/01 02:10:32;;;;;;;2.13;1.63;;;8.70;99.90;;;;;;4992374;28;20458;-65
2021/10/01 02:13:01;;;;;;;2.67;2.00;;;8.70;99.90;;;;;;4992423;28;20505;-65
2021/10/01 02:15:30;;;;;;;1.97;1.87;;;8.60;99.90;;;;;;4992280;28;20840;-64
2021/10/01 02:17:59;;;;;;;2.00;1.90;;;8.60;99.90;;;;;;4991953;28;20435;-65
2021/10/01 02:20:27;;;;;;;3.90;1.97;;;8.60;99.90;;;;;;4992513;28;20439;-65
2021/10/01 02:22:52;;;;;;;2.50;2.23;;;8.60;99.90;;;;;;4992343;28;20810;-65
2021/10/01 02:28:10;;;;;;;1.73;1.63;;;8.50;99.90;;;;;;4992538;28;20190;-65
2021/10/01 02:30:38;;;;;;;4.97;1.90;;;8.60;99.90;;;;;;4992396;28;20490;-65
2021/10/01 02:33:11;;;;;;;4.13;2.83;;;8.60;99.90;;;;;;4992324;28;20427;-65
2021/10/01 02:35:37;;;;;;;2.10;1.90;;;8.50;99.90;;;;;;4992088;28;20467;-66
2021/10/01 02:38:03;;;;;;;3.93;2.73;;;8.50;99.90;;;;;;4992086;28;20530;-65
2021/10/01 02:40:30;;;;;;;5.00;1.93;;;8.50;99.90;;;;;;4992472;28;20190;-65
2021/10/01 02:42:55;;;;;;;2.10;2.00;;;8.50;99.90;;;;;;4992384;28;20705;-66
2021/10/01 02:45:21;;;;;;;3.00;1.97;;;8.50;99.90;;;;;;4990613;28;20461;-65
2021/10/01 02:47:46;;;;;;;3.63;1.60;;;8.50;99.90;;;;;;4991821;28;20187;-65
2021/10/01 02:50:18;;;;;;;2.47;2.20;;;8.50;99.90;;;;;;4995288;28;20315;-66
2021/10/01 02:52:53;;;;;;;4.37;2.03;;;8.50;99.90;;;;;;4995794;28;20186;-66
2021/10/01 02:55:35;;;;;;;3.17;2.00;;;8.50;99.90;;;;;;4996145;28;20455;-65
2021/10/01 02:58:21;;;;;;;3.10;1.80;;;8.50;99.90;;;;;;4995784;28;20588;-65
2021/10/01 03:00:50;;;;;;;3.37;1.90;;;8.50;99.90;;;;;;4995923;28;20438;-65
2021/10/01 03:03:22;;;;;;;2.07;1.80;;;8.40;99.90;;;;;;4995997;28;20438;-66
2021/10/01 03:05:51;;;;;;;2.20;2.00;;;8.40;99.90;;;;;;4996012;28;20440;-66
2021/10/01 03:08:18;;;;;;;3.10;2.00;;;8.50;99.90;;;;;;4994265;28;20445;-66
2021/10/01 03:10:46;;;;;;;3.63;2.10;;;8.40;99.90;;;;;;4995833;28;20469;-65
2021/10/01 03:13:15;;;;;;;2.10;1.90;;;8.40;99.90;;;;;;4995656;28;20430;-65
2021/10/01 03:15:42;;;;;;;2.40;1.90;;;8.40;99.90;;;;;;4995896;28;20431;-65
2021/10/01 03:18:08;;;;;;;6.23;2.00;;;8.40;99.90;;;;;;4995522;28;20500;-65
2021/10/01 03:20:34;;;;;;;3.43;2.47;;;8.40;99.90;;;;;;4995443;28;20883;-65
2021/10/01 03:23:00;;;;;;;4.50;2.00;;;8.40;99.90;;;;;;4995436;28;20517;-65
2021/10/01 03:25:26;;;;;;;3.17;2.20;;;8.40;99.90;;;;;;4995583;28;20195;-65
2021/10/01 03:27:52;;;;;;;3.83;2.00;;;8.40;99.90;;;;;;4995342;28;20422;-65
2021/10/01 03:30:18;;;;;;;2.27;2.07;;;8.30;99.90;;;;;;4995429;28;20434;-65
2021/10/01 03:32:45;;;;;;;3.17;1.93;;;8.40;99.90;;;;;;4994907;28;20242;-65
2021/10/01 03:35:12;;;;;;;4.27;2.03;;;8.30;99.90;;;;;;4984009;28;20246;-65
2021/10/01 03:37:38;;;;;;;2.73;2.17;;;8.30;99.90;;;;;;4995153;28;20959;-65
2021/10/01 03:40:08;;;;;;;3.30;2.50;;;8.30;99.90;;;;;;4995359;28;20426;-65
2021/10/01 03:42:34;;;;;;;2.67;2.47;;;8.30;99.90;;;;;;4993998;28;20426;-65
2021/10/01 03:45:00;;;;;;;3.57;2.10;;;8.10;99.90;;;;;;4995410;28;20493;-65
2021/10/01 03:47:26;;;;;;;2.60;2.37;;;8.10;99.90;;;;;;4994706;28;20431;-65
2021/10/01 03:49:51;;;;;;;3.27;2.43;;;8.20;99.90;;;;;;4994941;28;20195;-65
2021/10/01 03:52:18;;;;;;;2.90;2.23;;;8.20;99.90;;;;;;4994905;28;20235;-65
2021/10/01 03:54:46;;;;;;;5.00;2.23;;;8.20;99.90;;;;;;4994952;28;20274;-65
2021/10/01 03:57:12;;;;;;;5.70;2.17;;;8.20;99.90;;;;;;4994799;28;20439;-67
2021/10/01 03:59:38;;;;;;;3.23;2.30;;;8.30;99.90;;;;;;4994679;28;20438;-66
2021/10/01 04:02:04;;;;;;;2.47;2.27;;;8.30;99.90;;;;;;4994831;28;20891;-65
2021/10/01 04:04:30;;;;;;;3.00;2.43;;;8.30;99.90;;;;;;4995062;28;20454;-65
2021/10/01 04:06:56;;;;;;;2.50;2.30;;;8.20;99.90;;;;;;4994863;28;20187;-66
2021/10/01 04:09:21;;;;;;;5.10;2.87;;;8.20;99.90;;;;;;4994649;28;20563;-66
2021/10/01 04:11:47;;;;;;;2.57;2.33;;;8.20;99.90;;;;;;4994710;28;20952;-66
2021/10/01 04:14:13;;;;;;;4.20;2.50;;;8.20;99.90;;;;;;4994838;28;20188;-65
2021/10/01 04:16:38;;;;;;;2.90;2.60;;;8.20;99.90;;;;;;4994473;28;20878;-65
2021/10/01 04:19:04;;;;;;;3.23;2.60;;;8.10;99.90;;;;;;4994200;28;20646;-66
2021/10/01 04:21:30;;;;;;;2.90;2.53;;;8.00;99.90;;;;;;4993687;28;20176;-65
2021/10/01 04:23:55;;;;;;;2.93;2.73;;;7.90;99.90;;;;;;4994395;28;20203;-65
2021/10/01 04:26:21;;;;;;;4.63;2.50;;;7.90;99.90;;;;;;4994572;28;20190;-65
2021/10/01 04:28:46;;;;;;;3.10;2.90;;;7.90;99.90;;;;;;4994369;28;20192;-65
2021/10/01 04:31:12;;;;;;;3.87;2.60;;;8.00;99.90;;;;;;4994256;28;20215;-65
2021/10/01 04:36:14;;;;;;;4.67;2.37;;;7.90;99.90;;;;;;4967024;28;20612;-65
2021/10/01 04:38:40;;;;;;;3.40;3.10;;;8.00;99.90;;;;;;4973930;28;20509;-64
2021/10/01 04:41:06;;;;;;;2.60;2.20;;;7.90;99.90;;;;;;4974970;28;20236;-64
2021/10/01 04:43:32;;;;;;;3.17;2.93;;;7.90;99.90;;;;;;4975025;28;20431;-62
2021/10/01 04:45:58;;;;;;;3.57;2.73;;;7.90;99.90;;;;;;4974840;28;20211;-64
2021/10/01 04:48:24;;;;;;;3.50;3.00;;;7.90;99.90;;;;;;4974676;28;20695;-64
2021/10/01 04:50:49;;;;;;;2.57;2.37;;;7.90;99.90;;;;;;4974764;28;20451;-64
2021/10/01 04:53:15;;;;;;;3.43;2.73;;;7.90;99.90;;;;;;4974748;28;20435;-64
2021/10/01 04:55:41;;;;;;;4.30;2.87;;;7.90;99.90;;;;;;4974595;28;20198;-64
2021/10/01 04:58:07;;;;;;;3.83;2.73;;;7.80;99.90;;;;;;4974427;28;20459;-64
2021/10/01 05:00:33;;;;;;;3.07;2.73;;;7.70;99.90;;;;;;4974755;28;20176;-63
2021/10/01 05:03:00;;;;;;;3.40;3.10;;;7.70;99.90;;;;;;4974604;28;20222;-64
2021/10/01 05:05:25;;;;;;;3.20;2.90;;;7.70;99.90;;;;;;4974369;28;20455;-64
2021/10/01 05:07:51;;;;;;;4.53;3.10;;;7.70;99.90;;;;;;4974241;28;20490;-64
2021/10/01 05:10:17;;;;;;;3.70;3.40;;;7.60;99.90;;;;;;4974407;28;20211;-64
2021/10/01 05:12:43;;;;;;;3.63;2.60;;;7.60;99.90;;;;;;4973897;28;20256;-64
2021/10/01 05:15:10;;;;;;;6.27;3.40;;;7.60;99.90;;;;;;4974279;28;20932;-64
2021/10/01 05:17:38;;;;;;;5.03;3.60;;;7.60;99.90;;;;;;4974057;28;20184;-62
2021/10/01 05:20:05;;;;;;;5.20;3.90;;;7.60;99.90;;;;;;4972323;28;20440;-64
2021/10/01 05:22:31;;;;;;;4.03;2.90;;;7.50;99.90;;;;;;4968494;28;20995;-63
2021/10/01 05:24:56;;;;;;;3.33;3.03;;;7.60;99.90;;;;;;4973594;28;20538;-64
2021/10/01 05:27:22;;;;;;;10.60;3.97;;;7.60;99.90;;;;;;4973591;28;20287;-64
2021/10/01 05:29:47;;;;;;;3.43;3.13;;;7.70;99.90;;;;;;4973572;28;20266;-64
2021/10/01 05:32:13;;;;;;;6.10;3.20;;;7.70;99.90;;;;;;4973592;28;20571;-64
2021/10/01 05:34:38;;;;;;;6.00;3.63;;;7.80;99.90;;;;;;4973399;28;20838;-64
2021/10/01 05:37:04;;;;;;;6.50;2.73;;;7.80;99.90;;;;;;4973209;28;20180;-64
2021/10/01 05:39:30;;;;;;;4.30;3.20;;;7.80;99.90;;;;;;4973010;28;20174;-64
2021/10/01 05:41:57;;;;;;;5.93;3.40;;;7.80;99.90;;;;;;4973595;28;20559;-64
2021/10/01 05:44:23;;;;;;;3.80;3.27;;;7.80;99.90;;;;;;4973574;28;20458;-64
2021/10/01 05:46:48;;;;;;;5.20;2.63;;;7.90;99.90;;;;;;4955865;28;20827;-63
2021/10/01 05:49:20;;;;;;;4.53;2.90;;;8.00;99.90;;;;;;4972505;28;20180;-64
2021/10/01 05:51:49;;;;;;;3.27;2.97;;;8.10;99.90;;;;;;4973468;28;20592;-65
2021/10/01 05:54:21;;;;;;;3.83;2.90;;;8.10;99.90;;;;;;4972922;28;20447;-63
2021/10/01 05:56:51;;;;;;;3.07;2.63;;;8.20;99.90;;;;;;4973356;28;20514;-64
2021/10/01 05:59:18;;;;;;;3.97;3.10;;;8.30;99.90;;;;;;4965270;28;20439;-65
2021/10/01 06:01:43;;;;;;;6.10;3.73;;;8.40;99.90;;;;;;4972867;28;20446;-64
2021/10/01 06:04:09;;;;;;;3.53;3.00;;;8.50;99.90;;;;;;4972912;28;20459;-64
2021/10/01 06:06:35;;;;;;;3.13;2.70;;;8.60;99.90;;;;;;4973323;28;20219;-64
2021/10/01 06:09:00;;;;;;;5.20;4.10;;;8.60;99.90;;;;;;4964420;28;20212;-64
2021/10/01 06:11:26;;;;;;;4.63;3.13;;;8.70;99.90;;;;;;4969592;28;20241;-64
2021/10/01 06:13:52;;;;;;;6.80;3.33;;;8.80;99.90;;;;;;4973178;28;20299;-64
2021/10/01 06:16:18;;;;;;;6.10;3.60;;;8.90;99.90;;;;;;4973405;28;20172;-64
2021/10/01 06:18:43;;;;;;;5.03;3.93;;;9.00;99.90;;;;;;4972850;28;20526;-64
2021/10/01 06:21:09;;;;;;;4.20;2.70;;;9.10;99.90;;;;;;4973307;28;20168;-62
2021/10/01 06:23:34;;;;;;;7.43;3.37;;;9.20;99.90;;;;;;4973374;28;20172;-64
2021/10/01 06:26:04;;;;;;;5.60;3.87;;;9.40;99.90;;;;;;4973281;28;20194;-65
2021/10/01 06:28:31;;;;;;;5.33;3.20;;;9.40;99.90;;;;;;4973060;28;20793;-65
2021/10/01 06:30:58;;;;;;;4.97;3.60;;;9.60;99.90;;;;;;4973158;28;20463;-64
2021/10/01 06:33:25;;;;;;;6.93;4.23;;;9.70;99.90;;;;;;4973248;28;20503;-65
2021/10/01 06:35:51;;;;;;;3.43;2.97;;;10.00;99.90;;;;;;4973016;28;20944;-64
2021/10/01 06:38:16;;;;;;;9.20;4.73;;;10.20;99.90;;;;;;4972880;28;20474;-64
2021/10/01 06:40:42;;;;;;;4.87;3.37;;;10.50;99.90;;;;;;4973213;28;20172;-65
2021/10/01 06:43:10;;;;;;;6.63;2.70;;;10.70;99.90;;;;;;4972827;28;20176;-65
2021/10/01 06:45:37;;;;;;;6.90;5.67;;;10.90;99.90;;;;;;4973070;28;20436;-64
2021/10/01 06:51:06;;;;;;;3.33;3.00;;;10.90;99.90;;;;;;4966283;28;21004;-65
2021/10/01 07:21:37;;;;;;;5.10;3.60;;;13.60;99.90;;;;;;4953512;29;20507;-65
2021/10/01 08:19:05;;;;;;;2.43;2.23;;;18.00;99.90;;;;;;4975285;28;20865;-65
2021/10/01 08:21:31;;;;;;;3.87;3.30;;;17.90;99.90;;;;;;4983138;28;20487;-65
2021/10/01 08:23:59;;;;;;;3.17;2.87;;;18.70;99.90;;;;;;4985763;28;22449;-66
2021/10/01 08:26:27;;;;;;;2.97;2.30;;;18.50;99.90;;;;;;4982495;28;20188;-65
2021/10/01 08:28:53;;;;;;;5.13;2.40;;;18.30;99.90;;;;;;4978594;28;20515;-65
2021/10/01 08:31:19;;;;;;;5.87;2.33;;;18.80;99.90;;;;;;4987390;28;20553;-65
2021/10/01 08:33:45;;;;;;;3.93;2.90;;;18.50;99.90;;;;;;4977703;28;20183;-65
2021/10/01 08:36:11;;;;;;;3.60;2.33;;;18.10;99.90;;;;;;4981893;28;20518;-65
2021/10/01 08:38:37;;;;;;;3.40;1.93;;;18.20;99.90;;;;;;4994297;28;20501;-64
2021/10/01 08:41:04;;;;;;;3.10;2.10;;;18.10;99.90;;;;;;4984975;28;20204;-65
2021/10/01 08:43:31;;;;;;;3.70;2.93;;;18.60;99.90;;;;;;4970129;28;20184;-65
2021/10/01 08:45:58;;;;;;;2.70;2.30;;;18.90;99.90;;;;;;4974114;28;20444;-66
2021/10/01 08:48:25;;;;;;;2.73;2.53;;;19.80;99.90;;;;;;4974333;28;20411;-65
2021/10/01 08:50:50;;;;;;;2.90;2.70;;;20.80;99.90;;;;;;4974110;28;20452;-65
2021/10/01 08:53:16;;;;;;;2.97;2.67;;;20.70;99.90;;;;;;4970758;28;20435;-63
2021/10/01 08:55:46;;;;;;;2.90;2.20;;;21.00;98.70;;;;;;4953784;29;20208;-64
2021/10/01 08:58:13;;;;;;;4.73;2.47;;;20.60;97.70;;;;;;4955213;29;20448;-64
2021/10/01 09:00:39;;;;;;;6.17;2.90;;;20.40;97.60;;;;;;4969733;28;20431;-63
2021/10/01 09:03:04;;;;;;;2.20;2.00;;;20.20;98.30;;;;;;4974550;28;20850;-64
2021/10/01 09:05:30;;;;;;;4.43;2.07;;;20.40;98.00;;;;;;4974582;28;20447;-64
2021/10/01 09:08:09;;;;;;;3.43;2.10;;;20.30;97.80;;;;;;4973675;28;20180;-64
2021/10/01 09:10:35;;;;;;;4.70;1.87;;;20.60;97.50;;;;;;4964299;28;20215;-68
2021/10/01 09:13:00;;;;;;;2.33;1.97;;;20.80;96.80;;;;;;4979237;28;21184;-68
2021/10/01 09:15:41;;;;;;;2.57;2.10;;;21.70;96.40;;;;;;4969658;28;20292;-69
2021/10/01 09:18:07;;;;;;;4.33;3.63;;;22.30;94.80;;;;;;4962940;28;20561;-68
2021/10/01 09:20:33;;;;;;;3.60;1.70;;;23.00;93.30;;;;;;4974228;28;20515;-69
2021/10/01 09:23:17;;;;;;;2.20;1.43;;;24.00;85.30;;;;;;4973912;28;20172;-69
2021/10/01 09:25:43;;;;;;;3.50;1.50;;;25.00;81.60;;;;;;4965254;28;20200;-69
2021/10/01 09:28:12;;;;;;;2.50;1.30;;;26.80;76.30;;;;;;4962061;28;20419;-69
2021/10/01 09:30:49;;;;;;;1.80;1.67;;;27.70;75.80;;;;;;4973496;28;20494;-69
2021/10/01 09:33:17;;;;;;;2.60;1.97;;;27.90;69.70;;;;;;4963201;28;20437;-69
2021/10/01 09:35:44;;;;;;;2.30;1.97;;;26.80;69.80;;;;;;4973559;28;20459;-69
2021/10/01 09:38:17;;;;;;;3.07;1.87;;;27.20;71.00;;;;;;4971277;28;20436;-69
2021/10/01 09:40:45;;;;;;;3.43;2.43;;;27.80;68.40;;;;;;4972046;28;20461;-70
2021/10/01 09:43:31;;;;;;;3.57;2.30;;;28.40;66.50;;;;;;4969601;28;20440;-69
2021/10/01 09:46:08;;;;;;;2.60;1.83;;;27.60;65.90;;;;;;4973863;28;20795;-69
2021/10/01 09:48:36;;;;;;;2.13;1.90;;;29.10;64.50;;;;;;4973232;28;20423;-69
2021/10/01 09:51:13;;;;;;;3.27;1.80;;;30.50;61.50;;;;;;4956476;28;20423;-67
2021/10/01 09:54:07;;;;;;;1.97;1.60;;;30.30;60.40;;;;;;4973579;28;20419;-67
2021/10/01 09:56:32;;;;;;;2.87;1.50;;;30.50;55.70;;;;;;4973697;28;20432;-67
2021/10/01 09:59:10;;;;;;;1.93;1.40;;;29.70;56.50;;;;;;4972999;28;20507;-67
2021/10/01 10:01:56;;;;;;;1.73;1.60;;;30.60;56.60;;;;;;4973484;28;20196;-69
2021/10/01 10:04:21;;;;;;;2.20;1.90;;;31.30;55.00;;;;;;4973515;28;20439;-70
2021/10/01 10:06:47;;;;;;;2.67;2.17;;;31.20;54.70;;;;;;4973489;28;20427;-69
2021/10/01 10:09:13;;;;;;;2.53;1.70;;;32.60;52.00;;;;;;4973175;28;20179;-70
2021/10/01 10:11:42;;;;;;;2.10;1.90;;;32.20;51.20;;;;;;4973531;28;20203;-69
2021/10/01 10:14:12;;;;;;;1.63;1.53;;;29.50;53.10;;;;;;4973197;28;20443;-70
2021/10/01 10:16:39;;;;;;;1.60;1.30;;;29.80;52.20;;;;;;4973555;28;20477;-69
2021/10/01 10:19:08;;;;;;;2.17;1.47;;;29.30;52.80;;;;;;4972989;28;20419;-70
2021/10/01 10:21:34;;;;;;;1.80;1.27;;;28.80;52.50;;;;;;4973502;28;20456;-69
2021/10/01 10:24:00;;;;;;;2.60;1.37;;;29.30;52.30;;;;;;4971384;28;20451;-69
2021/10/01 10:26:27;;;;;;;1.80;1.33;;;29.80;52.00;;;;;;4973284;28;20595;-69
2021/10/01 10:28:56;;;;;;;2.43;1.40;;;29.70;51.60;;;;;;4972890;28;20772;-69
2021/10/01 10:31:27;;;;;;;1.97;1.87;;;30.60;50.30;;;;;;4973289;28;20422;-67
2021/10/01 10:36:44;;;;;;;2.13;1.80;;;30.50;50.00;;;;;;4989946;28;20873;-72
2021/10/01 10:39:12;;;;;;;1.97;1.87;;;31.20;49.90;;;;;;4991932;28;20565;-72
2021/10/01 10:41:41;;;;;;;1.97;1.73;;;31.10;49.70;;;;;;4992344;28;20548;-71
2021/10/01 10:44:08;;;;;;;2.70;2.13;;;30.00;49.50;;;;;;4987951;28;20438;-71
2021/10/01 10:46:36;;;;;;;1.93;1.73;;;28.70;51.40;;;;;;4992256;28;20423;-71
2021/10/01 10:49:14;;;;;;;3.93;1.67;;;28.30;51.70;;;;;;4991780;28;20431;-71
2021/10/01 10:51:58;;;;;;;3.07;1.23;;;28.20;51.90;;;;;;4992108;28;20525;-71
2021/10/01 10:54:28;;;;;;;1.93;1.33;;;27.90;51.60;;;;;;4992445;28;20513;-71
2021/10/01 10:57:15;;;;;;;1.80;1.70;;;27.70;51.90;;;;;;4992398;28;20994;-71
2021/10/01 10:59:42;;;;;;;1.60;1.30;;;27.80;51.10;;;;;;4992380;28;20953;-71
2021/10/01 11:02:24;;;;;;;2.90;1.40;;;27.80;50.30;;;;;;4992165;28;20461;-72
2021/10/01 11:04:50;;;;;;;2.93;1.67;;;27.50;51.30;;;;;;4973302;28;20463;-72
2021/10/01 11:07:43;;;;;;;1.77;1.63;;;27.50;50.90;;;;;;4977171;28;20498;-72
2021/10/01 11:10:33;;;;;;;2.50;1.50;;;29.30;50.10;;;;;;4993506;28;20406;-71
2021/10/01 11:13:17;;;;;;;2.60;1.60;;;31.50;49.20;;;;;;4994751;28;20434;-70
2021/10/01 11:16:09;;;;;;;1.43;1.20;;;30.90;47.20;;;;;;4991385;28;20466;-69
2021/10/01 11:18:44;;;;;;;2.80;1.67;;;32.20;47.30;;;;;;4976163;28;20427;-71
2021/10/01 11:21:24;;;;;;;2.00;1.80;;;32.50;44.30;;;;;;4976445;28;20842;-69
2021/10/01 11:24:16;;;;;;;1.97;1.67;;;30.70;45.30;;;;;;4995072;28;20430;-69
2021/10/01 11:26:42;;;;;;;1.57;1.47;;;31.50;45.40;;;;;;4995071;28;20445;-70
2021/10/01 11:29:32;;;;;;;1.60;1.50;;;30.30;43.90;;;;;;4981799;28;20436;-69
2021/10/01 11:32:23;;;;;;;2.50;2.30;;;29.20;45.60;;;;;;4995262;28;20179;-68
2021/10/01 11:35:00;;;;;;;1.73;1.37;;;29.00;45.50;;;;;;4994468;28;20553;-69
2021/10/01 11:37:29;;;;;;;1.73;1.60;;;29.90;44.60;;;;;;4994091;28;20836;-70
2021/10/01 11:40:04;;;;;;;2.03;1.50;;;30.30;44.60;;;;;;4994371;28;20496;-69
2021/10/01 11:42:39;;;;;;;1.47;1.30;;;31.00;43.90;;;;;;4994418;28;20511;-69
2021/10/01 11:45:17;;;;;;;1.67;1.50;;;32.60;42.60;;;;;;4994176;28;20445;-70
2021/10/01 11:48:02;;;;;;;2.33;2.23;;;33.10;38.90;;;;;;4994080;28;20426;-69
2021/10/01 11:50:34;;;;;;;2.00;1.67;;;32.30;39.60;;;;;;4994152;28;20423;-69
2021/10/01 11:53:00;;;;;;;2.37;1.80;;;32.60;39.40;;;;;;4994175;28;20943;-70
2021/10/01 11:55:28;;;;;;;1.97;1.73;;;32.80;39.70;;;;;;4993899;28;20525;-70
2021/10/01 11:57:54;;;;;;;3.40;3.10;;;32.40;39.40;;;;;;4990717;28;20424;-69
2021/10/01 12:00:22;;;;;;;1.87;1.77;;;33.00;38.70;;;;;;4975917;28;20416;-69
2021/10/01 12:02:50;;;;;;;2.67;2.03;;;34.00;37.50;;;;;;4978911;28;20928;-68
2021/10/01 12:05:20;;;;;;;1.80;1.70;;;33.40;36.80;;;;;;4975699;28;20936;-69
2021/10/01 12:08:16;;;;;;;2.80;1.67;;;33.90;36.70;;;;;;4975393;28;20828;-69
2021/10/01 12:10:47;;;;;;;3.93;2.20;;;34.40;36.60;;;;;;4963643;28;20434;-69
2021/10/01 12:13:24;;;;;;;1.63;1.53;;;35.70;36.10;;;;;;4986648;28;20429;-69
2021/10/01 12:15:51;;;;;;;1.80;1.60;;;35.10;34.20;;;;;;4975549;28;20975;-67
2021/10/01 12:18:48;;;;;;;2.00;1.90;;;34.50;35.20;;;;;;4990823;28;20446;-67
2021/10/01 12:21:19;;;;;;;2.17;2.07;;;33.30;34.80;;;;;;4994083;28;20459;-70
2021/10/01 12:23:46;;;;;;;1.53;1.43;;;32.70;35.40;;;;;;4994860;28;20421;-69
2021/10/01 12:26:27;;;;;;;2.13;2.03;;;33.90;35.00;;;;;;4994774;28;20438;-70
2021/10/01 12:29:21;;;;;;;2.00;1.40;;;34.80;34.80;;;;;;4994144;28;20436;-69
2021/10/01 12:31:55;;;;;;;2.93;1.57;;;34.10;33.70;;;;;;4985902;28;20422;-69
2021/10/01 12:34:24;;;;;;;4.63;1.87;;;34.10;34.80;;;;;;4994411;28;20446;-69
2021/10/01 12:36:56;;;;;;;8.90;1.93;;;33.60;35.60;;;;;;5001864;28;20807;-70
2021/10/01 12:39:26;;;;;;;2.27;2.07;;;32.70;36.80;;;;;;5013941;28;20405;-69
2021/10/01 12:41:56;;;;;;;1.80;1.70;;;33.40;36.40;;;;;;5008660;28;20458;-70
2021/10/01 12:44:22;;;;;;;2.40;1.87;;;34.90;35.50;;;;;;4983723;28;21046;-70
2021/10/01 12:46:50;;;;;;;2.07;1.50;;;36.90;34.00;;;;;;4993332;28;20461;-70
2021/10/01 12:49:33;;;;;;;2.00;1.67;;;34.70;33.30;;;;;;4994101;28;20176;-69
2021/10/01 12:52:03;;;;;;;3.27;1.93;;;32.80;35.50;;;;;;4978542;28;20451;-69
2021/10/01 12:54:33;;;;;;;4.23;2.33;;;31.50;36.40;;;;;;4989791;28;20498;-68
2021/10/01 12:57:16;;;;;;;3.30;1.70;;;33.20;36.30;;;;;;4993421;28;20438;-69
2021/10/01 12:59:59;;;;;;;2.37;1.80;;;33.40;36.00;;;;;;4993736;28;20430;-69
2021/10/01 13:02:52;;;;;;;2.10;1.90;;;33.80;35.00;;;;;;4978763;28;20998;-67
2021/10/01 13:05:29;;;;;;;2.60;1.70;;;33.30;35.70;;;;;;4988259;28;20542;-68
2021/10/01 13:07:57;;;;;;;2.50;2.30;;;33.20;35.20;;;;;;4993351;28;20442;-67
2021/10/01 13:10:32;;;;;;;4.00;2.10;;;34.50;35.40;;;;;;4993128;28;20441;-67
2021/10/01 13:13:04;;;;;;;4.93;4.33;;;35.10;35.40;;;;;;4993577;28;20803;-67
2021/10/01 13:15:41;;;;;;;5.57;4.83;;;34.30;35.70;;;;;;4993497;28;20450;-68
2021/10/01 13:18:17;;;;;;;5.23;4.83;;;34.20;36.00;;;;;;4993164;28;20442;-67
2021/10/01 13:21:07;;;;;;;3.20;3.00;;;33.70;36.60;;;;;;4993252;28;20939;-67
2021/10/01 13:23:37;;;;;;;3.27;2.70;;;34.90;35.90;;;;;;4993441;28;20521;-67
2021/10/01 13:26:10;;;;;;;2.60;2.40;;;35.30;35.70;;;;;;4992135;28;20532;-67
2021/10/01 13:28:35;;;;;;;2.93;2.63;;;33.70;35.90;;;;;;4992568;28;20435;-67
2021/10/01 13:31:01;;;;;;;2.90;2.67;;;34.60;36.30;;;;;;4993181;28;20474;-67
2021/10/01 13:33:27;;;;;;;3.27;2.37;;;34.60;36.10;;;;;;4988382;28;20700;-68
2021/10/01 13:35:55;;;;;;;5.87;5.30;;;36.10;35.70;;;;;;4992320;28;20219;-70
2021/10/01 13:38:30;;;;;;;3.90;3.30;;;36.80;34.50;;;;;;4977447;28;20432;-69
2021/10/01 13:40:57;;;;;;;2.10;2.00;;;33.20;37.00;;;;;;4987772;28;20971;-66
2021/10/01 13:43:22;;;;;;;2.73;2.53;;;30.30;40.50;;;;;;4979036;28;20428;-67
2021/10/01 13:45:48;;;;;;;3.27;2.70;;;29.90;41.80;;;;;;4982719;28;20454;-67
2021/10/01 13:48:13;;;;;;;2.97;2.73;;;29.00;42.60;;;;;;4973607;28;20224;-66
2021/10/01 13:50:41;;;;;;;3.27;3.00;;;27.80;44.60;;;;;;4974827;28;20173;-67
2021/10/01 13:53:07;;;;;;;3.10;2.77;;;26.60;46.10;;;;;;4972216;28;20186;-67
2021/10/01 13:55:33;;;;;;;4.43;3.40;;;25.50;48.20;;;;;;4992342;28;20545;-66
2021/10/01 13:57:58;;;;;;;3.20;3.00;;;25.00;49.20;;;;;;4992093;28;20221;-66
2021/10/01 14:00:25;;;;;;;4.00;3.60;;;24.50;50.60;;;;;;4992701;28;20179;-66
2021/10/01 14:02:51;;;;;;;3.20;3.00;;;24.20;51.60;;;;;;4992683;28;20193;-66
2021/10/01 14:05:17;;;;;;;3.90;3.60;;;24.20;51.90;;;;;;4988499;28;20545;-66
2021/10/01 14:07:45;;;;;;;3.53;3.23;;;24.20;52.00;;;;;;4992427;28;20434;-66
2021/10/01 14:10:15;;;;;;;3.87;3.47;;;24.00;52.40;;;;;;4992988;28;20167;-66
2021/10/01 14:12:41;;;;;;;4.00;3.70;;;24.00;53.60;;;;;;4992450;28;20435;-66
2021/10/01 14:15:07;;;;;;;4.00;3.70;;;23.60;53.30;;;;;;4992781;28;20542;-65
2021/10/01 14:17:33;;;;;;;3.37;3.07;;;23.30;54.30;;;;;;4992598;28;20415;-66
2021/10/01 14:19:59;;;;;;;4.00;3.70;;;23.20;55.10;;;;;;4975292;28;20561;-69
2021/10/01 14:22:25;;;;;;;4.70;4.30;;;23.10;55.60;;;;;;4992718;28;20211;-68
2021/10/01 14:24:50;;;;;;;6.57;5.93;;;23.00;56.10;;;;;;4992720;28;20477;-66
2021/10/01 14:27:16;;;;;;;3.90;3.60;;;22.90;57.00;;;;;;4992523;28;20179;-67
2021/10/01 14:29:41;;;;;;;4.53;4.13;;;23.00;56.90;;;;;;4992526;28;20172;-66
2021/10/01 14:32:07;;;;;;;5.10;4.60;;;22.90;57.20;;;;;;4992704;28;20234;-66
2021/10/01 14:34:33;;;;;;;4.60;4.20;;;22.80;57.60;;;;;;4992500;28;20211;-66
2021/10/01 14:36:58;;;;;;;5.70;5.23;;;22.60;57.70;;;;;;4992537;28;20194;-67
2021/10/01 14:39:24;;;;;;;5.07;4.60;;;22.50;57.40;;;;;;4992462;28;20179;-66
2021/10/01 14:41:49;;;;;;;5.70;5.20;;;22.50;57.70;;;;;;4992410;28;20237;-66